Time;durP1;ratioP1;P1;durP2;ratioP2;P2;SDS_P1;SDS_P2;PMS_P1;PMS_P2;Temp;Humidity;BMP_temperature;BMP_pressure;BME280_temperature;BME280_humidity;BME280_pressure;Samples;Min_cycle;Max_cycle;Signal;HPM_P1;HPM_P2
2023/03/21 00:01:40;;;;;;;2.00;1.80;;;;;;;9.27;100.00;101604.00;5010164;28;20033;-63
2023/03/21 00:04:05;;;;;;;2.50;1.77;;;;;;;9.25;100.00;101589.66;5011031;28;20030;-62
2023/03/21 00:06:31;;;;;;;2.33;1.83;;;;;;;9.28;100.00;101600.22;5011149;28;20484;-63
2023/03/21 00:08:56;;;;;;;2.00;1.80;;;;;;;9.23;100.00;101600.00;5009395;28;20022;-63
2023/03/21 00:11:21;;;;;;;2.60;2.00;;;;;;;9.21;100.00;101597.44;5011131;28;20045;-60
2023/03/21 00:13:47;;;;;;;2.22;1.80;;;;;;;9.22;100.00;101596.38;5010250;28;20051;-63
2023/03/21 00:16:15;;;;;;;2.38;1.90;;;;;;;9.17;100.00;101596.13;5010563;28;20063;-62
2023/03/21 00:18:51;;;;;;;2.30;2.00;;;;;;;9.16;100.00;101590.88;5008180;28;20018;-63
2023/03/21 00:21:19;;;;;;;2.47;2.10;;;;;;;9.13;100.00;101586.66;5009211;28;20030;-63
2023/03/21 00:23:45;;;;;;;1.85;1.75;;;;;;;9.11;100.00;101586.00;5008744;28;20088;-62
2023/03/21 00:26:11;;;;;;;2.10;1.90;;;;;;;9.09;100.00;101580.72;5010796;28;20095;-62
2023/03/21 00:28:38;;;;;;;2.47;2.28;;;;;;;9.04;100.00;101575.00;5009972;28;20037;-63
2023/03/21 00:31:06;;;;;;;3.33;2.03;;;;;;;9.01;100.00;101588.25;5010573;28;20041;-62
2023/03/21 00:33:32;;;;;;;2.55;2.13;;;;;;;9.01;100.00;101583.63;5009645;28;20026;-62
2023/03/21 00:35:57;;;;;;;2.20;2.00;;;;;;;9.01;100.00;101572.66;5009484;28;20128;-62
2023/03/21 00:38:23;;;;;;;2.60;2.10;;;;;;;9.01;100.00;101571.81;5009961;28;20040;-63
2023/03/21 00:40:49;;;;;;;2.00;1.83;;;;;;;8.96;100.00;101566.94;5010124;28;20048;-63
2023/03/21 00:43:16;;;;;;;2.25;2.05;;;;;;;8.96;100.00;101572.44;5009889;28;20034;-62
2023/03/21 00:45:42;;;;;;;2.38;2.17;;;;;;;8.92;100.00;101567.56;5008428;28;20412;-62
2023/03/21 00:48:08;;;;;;;2.20;2.00;;;;;;;8.91;100.00;101560.38;5010675;28;20388;-62
2023/03/21 00:50:33;;;;;;;2.30;2.05;;;;;;;8.90;100.00;101562.28;5008972;28;20026;-62
2023/03/21 00:52:59;;;;;;;2.72;2.03;;;;;;;8.89;100.00;101557.88;5010097;28;20030;-60
2023/03/21 00:55:24;;;;;;;3.15;2.30;;;;;;;8.89;100.00;101565.25;5010061;28;20538;-63
2023/03/21 00:57:50;;;;;;;2.72;2.20;;;;;;;8.87;100.00;101550.88;5007561;28;20133;-62
2023/03/21 01:00:16;;;;;;;2.40;2.20;;;;;;;8.85;100.00;101542.88;5010204;28;20372;-63
2023/03/21 01:02:55;;;;;;;2.45;2.20;;;;;;;8.82;100.00;101546.88;5010160;28;20029;-62
2023/03/21 01:06:01;;;;;;;2.85;2.20;;;;;;;8.80;100.00;101548.94;5009432;28;20029;-63
2023/03/21 01:08:07;;;;;;;2.83;2.20;;;;;;;8.81;100.00;101538.84;5007735;28;20048;-63
2023/03/21 01:10:32;;;;;;;2.50;2.20;;;;;;;8.82;100.00;101537.81;5009130;28;20377;-63
2023/03/21 01:12:58;;;;;;;2.50;2.13;;;;;;;8.86;100.00;101532.75;5009469;28;20025;-62
2023/03/21 01:15:23;;;;;;;2.75;2.10;;;;;;;8.85;100.00;101526.44;5008250;28;20030;-62
2023/03/21 01:17:48;;;;;;;2.17;1.95;;;;;;;8.87;100.00;101531.69;5009120;28;20022;-63
2023/03/21 01:20:14;;;;;;;2.00;1.80;;;;;;;8.88;100.00;101523.31;5005553;28;20041;-63
2023/03/21 01:22:39;;;;;;;2.80;1.90;;;;;;;8.90;100.00;101529.41;5008686;28;20384;-63
2023/03/21 01:25:05;;;;;;;2.97;2.25;;;;;;;8.91;100.00;101522.03;5009328;28;20029;-63
2023/03/21 01:27:30;;;;;;;2.90;2.03;;;;;;;8.92;100.00;101515.50;5009130;28;20033;-62
2023/03/21 01:29:55;;;;;;;2.22;2.03;;;;;;;8.92;100.00;101516.38;5009016;28;20026;-63
2023/03/21 01:32:21;;;;;;;2.90;2.08;;;;;;;8.92;100.00;101513.63;5008398;28;20125;-62
2023/03/21 01:34:46;;;;;;;3.05;2.22;;;;;;;8.95;100.00;101506.88;5007998;28;20106;-63
2023/03/21 01:37:11;;;;;;;2.55;1.95;;;;;;;8.95;100.00;101509.63;5009542;28;20128;-63
2023/03/21 01:39:36;;;;;;;2.10;1.88;;;;;;;8.97;100.00;101499.31;5009016;28;20465;-63
2023/03/21 01:42:02;;;;;;;2.83;2.15;;;;;;;8.97;100.00;101500.16;5008576;28;20033;-62
2023/03/21 01:44:27;;;;;;;2.30;1.70;;;;;;;8.97;100.00;101493.81;5007073;28;20053;-62
2023/03/21 01:46:53;;;;;;;2.15;1.77;;;;;;;8.97;100.00;101494.69;5008894;28;20034;-63
2023/03/21 01:49:33;;;;;;;2.30;2.10;;;;;;;8.99;100.00;101494.47;5007897;28;20040;-63
2023/03/21 01:52:07;;;;;;;2.40;1.90;;;;;;;8.99;100.00;101491.75;5008431;28;20022;-61
2023/03/21 01:54:37;;;;;;;2.75;1.98;;;;;;;8.99;100.00;101489.84;5008135;28;20650;-62
2023/03/21 01:57:10;;;;;;;3.00;2.10;;;;;;;8.99;100.00;101484.38;4995406;28;20034;-62
2023/03/21 01:59:47;;;;;;;2.60;2.00;;;;;;;9.00;100.00;101488.78;5008415;28;20037;-63
2023/03/21 02:02:26;;;;;;;2.13;1.90;;;;;;;9.00;100.00;101482.47;5008242;28;20107;-63
2023/03/21 02:04:56;;;;;;;2.28;1.80;;;;;;;9.00;100.00;101479.72;5007536;28;20049;-63
2023/03/21 02:07:34;;;;;;;2.47;1.90;;;;;;;9.01;100.00;101481.41;5007626;28;20404;-64
2023/03/21 02:10:00;;;;;;;2.88;2.00;;;;;;;9.00;100.00;101468.75;5008666;28;20021;-63
2023/03/21 02:12:26;;;;;;;2.22;1.83;;;;;;;9.00;100.00;101471.50;5008246;28;20489;-62
2023/03/21 02:14:53;;;;;;;2.92;1.85;;;;;;;8.99;100.00;101464.34;5008310;28;20030;-63
2023/03/21 02:17:35;;;;;;;2.72;1.85;;;;;;;9.01;100.00;101465.81;5007147;28;20033;-62
2023/03/21 02:20:10;;;;;;;2.75;1.80;;;;;;;9.02;100.00;101458.44;5007385;28;20053;-63
2023/03/21 02:23:04;;;;;;;2.13;1.90;;;;;;;9.01;100.00;101462.22;5006877;28;20034;-61
2023/03/21 02:25:55;;;;;;;3.03;1.83;;;;;;;8.99;100.00;101456.97;5009366;28;20049;-63
2023/03/21 02:28:27;;;;;;;2.38;1.80;;;;;;;9.00;100.00;101461.38;5006965;28;20080;-61
2023/03/21 02:31:11;;;;;;;2.47;1.70;;;;;;;9.02;100.00;101459.31;5006997;28;20103;-62
2023/03/21 02:33:54;;;;;;;1.90;1.73;;;;;;;9.00;100.00;101450.44;5008272;28;20033;-62
2023/03/21 02:36:24;;;;;;;2.38;1.75;;;;;;;9.01;100.00;101448.53;5007966;28;20021;-62
2023/03/21 02:39:12;;;;;;;2.83;1.80;;;;;;;9.02;100.00;101436.50;5007011;28;20129;-62
2023/03/21 02:41:46;;;;;;;;;;;;;;;9.06;100.00;101449.59;5007074;28;20381;-63
2023/03/21 02:44:28;;;;;;;3.45;1.88;;;;;;;8.99;100.00;101446.00;5007209;28;20300;-61
2023/03/21 02:47:31;;;;;;;2.60;1.60;;;;;;;9.02;100.00;101442.00;5006692;28;20492;-63
2023/03/21 02:50:01;;;;;;;2.35;1.65;;;;;;;8.98;100.00;101438.00;5006635;28;20036;-62
2023/03/21 02:52:30;;;;;;;2.53;1.80;;;;;;;8.97;100.00;101439.03;5006088;28;20033;-62
2023/03/21 02:54:58;;;;;;;2.08;1.75;;;;;;;8.96;100.00;101442.81;5007982;28;20029;-63
2023/03/21 02:57:24;;;;;;;2.13;1.92;;;;;;;8.94;100.00;101439.47;5006665;28;20049;-63
2023/03/21 02:59:50;;;;;;;2.28;1.80;;;;;;;8.93;100.00;101437.78;5006898;28;20476;-63
2023/03/21 03:02:21;;;;;;;2.08;1.80;;;;;;;8.92;100.00;101433.31;5007488;28;20030;-62
2023/03/21 03:04:47;;;;;;;2.80;1.98;;;;;;;8.92;100.00;101436.94;5007329;28;20021;-62
2023/03/21 03:07:26;;;;;;;2.35;1.83;;;;;;;8.91;100.00;101429.75;5007597;28;20373;-62
2023/03/21 03:10:10;;;;;;;2.83;2.00;;;;;;;8.91;100.00;101429.75;5007120;28;20042;-61
2023/03/21 03:12:45;;;;;;;1.70;1.60;;;;;;;8.90;100.00;101421.72;5005463;28;20480;-62
2023/03/21 03:15:17;;;;;;;2.08;1.70;;;;;;;8.89;100.00;101422.78;4989125;28;20485;-62
2023/03/21 03:17:54;;;;;;;2.28;1.73;;;;;;;8.89;100.00;101431.00;5005818;28;20120;-61
2023/03/21 03:20:19;;;;;;;2.75;1.80;;;;;;;8.87;100.00;101419.41;5006246;28;20026;-64
2023/03/21 03:23:03;;;;;;;2.03;1.73;;;;;;;8.87;100.00;101423.00;5005815;28;20036;-63
2023/03/21 03:26:01;;;;;;;2.13;1.90;;;;;;;8.89;100.00;101417.31;5008364;28;20103;-63
2023/03/21 03:28:32;;;;;;;2.30;1.83;;;;;;;8.89;100.00;101420.06;5006341;28;20033;-63
2023/03/21 03:30:59;;;;;;;2.70;1.90;;;;;;;8.89;100.00;101409.09;5007787;28;20030;-63
2023/03/21 03:33:26;;;;;;;2.22;1.90;;;;;;;8.88;100.00;101407.41;5007659;28;20026;-62
2023/03/21 03:35:54;;;;;;;2.55;1.75;;;;;;;8.86;100.00;101404.84;5005660;28;20117;-63
2023/03/21 03:38:21;;;;;;;2.53;1.90;;;;;;;8.87;100.00;101417.53;5007452;28;20092;-62
2023/03/21 03:41:08;;;;;;;2.85;1.90;;;;;;;8.88;100.00;101412.91;5007113;28;20029;-61
2023/03/21 03:43:40;;;;;;;1.88;1.70;;;;;;;8.86;100.00;101404.84;4988638;28;20050;-63
2023/03/21 03:46:15;;;;;;;2.42;1.73;;;;;;;8.84;100.00;101402.34;5007253;28;20034;-63
2023/03/21 03:48:53;;;;;;;1.80;1.60;;;;;;;8.84;100.00;101396.84;5005610;28;20473;-61
2023/03/21 03:51:28;;;;;;;2.05;1.85;;;;;;;8.83;100.00;101400.66;4997052;28;20113;-63
2023/03/21 03:53:58;;;;;;;2.50;1.95;;;;;;;8.83;100.00;101395.19;5006928;28;20211;-63
2023/03/21 03:56:25;;;;;;;2.30;1.70;;;;;;;8.81;100.00;101394.50;5006725;28;20033;-62
2023/03/21 03:58:50;;;;;;;2.20;1.90;;;;;;;8.81;100.00;101391.78;5005675;28;20473;-63
2023/03/21 04:01:16;;;;;;;2.67;2.03;;;;;;;8.82;100.00;101385.28;5007231;28;20053;-63
2023/03/21 04:03:44;;;;;;;2.58;1.85;;;;;;;8.79;100.00;101387.56;5007172;28;20025;-61
2023/03/21 04:06:09;;;;;;;2.13;1.92;;;;;;;8.80;100.00;101390.09;5006546;28;20040;-62
2023/03/21 04:08:36;;;;;;;2.08;1.80;;;;;;;8.80;100.00;101390.09;5006068;28;20771;-63
2023/03/21 04:11:01;;;;;;;2.35;1.92;;;;;;;8.79;100.00;101388.41;5006441;28;20040;-62
2023/03/21 04:13:27;;;;;;;2.95;1.75;;;;;;;8.79;100.00;101393.06;5004773;28;20026;-62
2023/03/21 04:15:52;;;;;;;2.08;1.88;;;;;;;8.79;100.00;101387.56;5007144;28;20088;-63
2023/03/21 04:18:17;;;;;;;2.45;1.90;;;;;;;8.77;100.00;101385.03;5006019;28;20113;-63
2023/03/21 04:20:43;;;;;;;2.13;1.90;;;;;;;8.79;100.00;101382.94;5004877;28;20447;-61
2023/03/21 04:23:10;;;;;;;2.55;2.00;;;;;;;8.78;100.00;101380.41;5006617;28;20422;-63
2023/03/21 04:25:36;;;;;;;2.78;2.20;;;;;;;8.79;100.00;101371.13;5005651;28;20053;-61
2023/03/21 04:28:01;;;;;;;2.00;1.80;;;;;;;8.77;100.00;101376.00;5005469;28;20504;-61
2023/03/21 04:30:27;;;;;;;3.00;1.92;;;;;;;8.78;100.00;101381.25;5007561;28;20030;-63
2023/03/21 04:32:59;;;;;;;2.15;1.80;;;;;;;8.77;100.00;101368.63;5006962;28;20034;-63
2023/03/21 04:35:26;;;;;;;2.28;1.95;;;;;;;8.78;100.00;101364.81;5010230;28;20057;-63
2023/03/21 04:37:51;;;;;;;1.90;1.70;;;;;;;8.79;100.00;101369.25;5009211;28;20052;-63
2023/03/21 04:40:17;;;;;;;2.58;1.88;;;;;;;8.80;100.00;101365.44;5009680;28;20026;-63
2023/03/21 04:42:43;;;;;;;2.70;1.90;;;;;;;8.81;100.00;101363.53;5009865;28;20072;-61
2023/03/21 04:45:09;;;;;;;2.50;1.90;;;;;;;8.81;100.00;101363.53;5007991;28;20053;-63
2023/03/21 04:47:35;;;;;;;3.00;2.30;;;;;;;8.81;100.00;101367.13;5010113;28;20030;-63
2023/03/21 04:50:00;;;;;;;2.35;2.10;;;;;;;8.83;100.00;101361.47;5009418;28;20022;-63
2023/03/21 04:52:25;;;;;;;2.65;2.10;;;;;;;8.84;100.00;101347.56;5010564;28;20342;-63
2023/03/21 04:54:51;;;;;;;2.60;1.90;;;;;;;8.84;100.00;101343.97;5009558;28;20044;-62
2023/03/21 04:57:16;;;;;;;3.05;2.30;;;;;;;8.85;100.00;101342.91;5009371;28;20034;-62
2023/03/21 04:59:42;;;;;;;3.05;2.00;;;;;;;8.86;100.00;101351.97;5009232;28;20034;-63
2023/03/21 05:02:07;;;;;;;2.38;1.80;;;;;;;8.86;100.00;101346.50;5010428;28;20030;-63
2023/03/21 05:04:32;;;;;;;2.63;2.00;;;;;;;8.86;100.00;101333.63;5008318;28;20022;-63
2023/03/21 05:06:58;;;;;;;2.78;1.98;;;;;;;8.87;100.00;101346.31;5009967;28;20033;-63
2023/03/21 05:09:24;;;;;;;2.42;1.83;;;;;;;8.88;100.00;101347.16;5009262;28;20034;-60
2023/03/21 05:11:50;;;;;;;2.30;1.90;;;;;;;8.89;100.00;101338.72;5009078;28;20034;-63
2023/03/21 05:14:21;;;;;;;3.13;1.88;;;;;;;8.91;100.00;101341.25;5008276;28;20045;-63
2023/03/21 05:16:51;;;;;;;2.92;2.00;;;;;;;8.92;100.00;101337.44;5008640;28;20034;-63
2023/03/21 05:19:22;;;;;;;2.88;2.10;;;;;;;8.91;100.00;101341.25;5007939;28;20094;-63
2023/03/21 05:21:48;;;;;;;2.45;2.00;;;;;;;8.93;100.00;101339.16;5005363;28;20442;-63
2023/03/21 05:24:16;;;;;;;2.58;2.00;;;;;;;8.94;100.00;101338.09;5007961;28;20481;-60
2023/03/21 05:26:43;;;;;;;3.03;2.17;;;;;;;8.95;100.00;101342.50;5008197;28;20036;-61
2023/03/21 05:29:09;;;;;;;2.17;1.80;;;;;;;8.94;100.00;101344.41;5006163;28;20481;-62
2023/03/21 05:31:35;;;;;;;2.08;1.80;;;;;;;8.95;100.00;101331.56;5008953;28;20025;-63
2023/03/21 05:34:00;;;;;;;2.03;1.75;;;;;;;8.94;100.00;101341.69;5006305;28;20034;-63
2023/03/21 05:36:25;;;;;;;2.35;1.65;;;;;;;8.94;100.00;101340.84;5008887;28;20396;-63
2023/03/21 05:38:51;;;;;;;3.05;2.08;;;;;;;8.95;100.00;101335.13;5008835;28;20041;-63
2023/03/21 05:41:17;;;;;;;2.40;1.80;;;;;;;8.96;100.00;101335.97;5009064;28;20079;-63
2023/03/21 05:43:43;;;;;;;2.65;1.90;;;;;;;8.95;100.00;101335.13;4990292;28;20463;-63
2023/03/21 05:46:10;;;;;;;2.95;2.13;;;;;;;8.97;100.00;101334.91;5008742;28;20116;-62
2023/03/21 05:48:36;;;;;;;2.38;1.67;;;;;;;8.96;100.00;101335.97;5008058;28;20021;-63
2023/03/21 05:51:02;;;;;;;1.83;1.70;;;;;;;8.97;100.00;101334.91;5008216;28;20464;-61
2023/03/21 05:53:27;;;;;;;2.47;2.00;;;;;;;8.98;100.00;101333.91;5009106;28;20057;-63
2023/03/21 05:55:53;;;;;;;2.60;1.90;;;;;;;9.00;100.00;101329.03;5008924;28;20111;-63
2023/03/21 05:58:18;;;;;;;3.28;2.00;;;;;;;9.00;100.00;101332.63;5008008;28;20079;-63
2023/03/21 06:00:44;;;;;;;2.95;1.90;;;;;;;9.01;100.00;101334.31;5007841;28;20065;-62
2023/03/21 06:03:09;;;;;;;3.33;2.10;;;;;;;9.02;100.00;101329.66;5006343;28;20030;-63
2023/03/21 06:05:35;;;;;;;2.25;1.80;;;;;;;9.02;100.00;101326.91;5007631;28;20045;-64
2023/03/21 06:08:00;;;;;;;2.88;1.80;;;;;;;9.03;100.00;101336.84;5008948;28;20029;-61
2023/03/21 06:10:25;;;;;;;3.05;1.75;;;;;;;9.05;100.00;101332.00;5009333;28;20029;-63
2023/03/21 06:12:51;;;;;;;2.80;1.90;;;;;;;9.06;100.00;101333.69;5006625;28;20030;-63
2023/03/21 06:15:16;;;;;;;2.45;1.90;;;;;;;9.08;100.00;101337.06;5008018;28;20381;-64
2023/03/21 06:17:41;;;;;;;2.35;1.80;;;;;;;9.08;100.00;101326.13;5006096;28;20104;-62
2023/03/21 06:20:07;;;;;;;2.22;1.70;;;;;;;9.12;100.00;101332.84;5007606;28;20105;-63
2023/03/21 06:22:34;;;;;;;3.10;1.90;;;;;;;9.15;100.00;101331.59;5006034;28;20026;-62
2023/03/21 06:24:59;;;;;;;2.25;1.80;;;;;;;9.15;100.00;101332.44;5009128;28;20434;-63
2023/03/21 06:27:24;;;;;;;2.85;1.90;;;;;;;9.17;100.00;101335.78;5008349;28;20030;-63
2023/03/21 06:29:50;;;;;;;2.78;1.80;;;;;;;9.21;100.00;101333.47;5007441;28;20107;-64
2023/03/21 06:32:15;;;;;;;3.15;2.00;;;;;;;9.23;100.00;101343.19;5007732;28;20033;-64
2023/03/21 06:34:41;;;;;;;2.33;1.80;;;;;;;9.26;100.00;101345.50;5006830;28;20088;-63
2023/03/21 06:37:07;;;;;;;2.60;1.63;;;;;;;9.30;100.00;101344.03;5008120;28;20071;-64
2023/03/21 06:39:32;;;;;;;2.30;1.73;;;;;;;9.33;100.00;101345.53;5008278;28;20030;-63
2023/03/21 06:41:58;;;;;;;2.30;1.65;;;;;;;9.37;100.00;101352.25;5008012;28;20671;-63
2023/03/21 06:44:23;;;;;;;2.75;1.60;;;;;;;9.41;100.00;101342.56;5005598;28;20073;-63
2023/03/21 06:46:50;;;;;;;1.65;1.40;;;;;;;9.42;100.00;101332.44;5005345;28;20040;-63
2023/03/21 06:49:16;;;;;;;2.67;1.70;;;;;;;9.43;100.00;101342.34;5006833;28;20460;-63
2023/03/21 06:51:42;;;;;;;2.28;1.42;;;;;;;9.43;100.00;101343.22;5007197;28;20045;-64
2023/03/21 06:54:07;;;;;;;2.60;1.73;;;;;;;9.42;100.00;101332.44;5008255;28;20029;-64
2023/03/21 06:56:33;;;;;;;1.55;1.45;;;;;;;9.43;100.00;101342.34;5006874;28;20423;-64
2023/03/21 06:58:58;;;;;;;2.13;1.60;;;;;;;9.43;100.00;101334.97;5007954;28;20026;-63
2023/03/21 07:01:26;;;;;;;2.65;1.55;;;;;;;9.42;100.00;101344.25;5006157;28;20528;-63
2023/03/21 07:03:52;;;;;;;2.47;1.67;;;;;;;9.39;100.00;101339.19;5005903;28;20042;-63
2023/03/21 07:06:18;;;;;;;2.38;1.80;;;;;;;9.37;100.00;101341.28;5004955;28;21721;-64
2023/03/21 07:08:43;;;;;;;2.92;1.70;;;;;;;9.33;100.00;101340.88;5007453;28;20040;-63
2023/03/21 07:11:08;;;;;;;3.30;2.00;;;;;;;9.34;100.00;101348.03;5006535;28;20058;-64
2023/03/21 07:13:34;;;;;;;2.85;1.70;;;;;;;9.33;100.00;101357.34;5006524;28;20025;-63
2023/03/21 07:15:59;;;;;;;3.08;1.85;;;;;;;9.33;100.00;101359.22;5007809;28;20069;-62
2023/03/21 07:18:25;;;;;;;2.55;1.58;;;;;;;9.30;100.00;101363.22;5006577;28;20026;-62
2023/03/21 07:20:50;;;;;;;2.47;1.80;;;;;;;9.28;100.00;101361.75;5005220;28;20033;-63
2023/03/21 07:23:21;;;;;;;2.65;1.80;;;;;;;9.29;100.00;101367.03;4990517;28;20017;-63
2023/03/21 07:25:48;;;;;;;3.75;1.88;;;;;;;9.34;100.00;101363.66;5007448;28;20076;-63
2023/03/21 07:28:14;;;;;;;2.55;1.60;;;;;;;9.36;100.00;101359.63;5006875;28;20030;-62
2023/03/21 07:30:40;;;;;;;2.90;1.73;;;;;;;9.38;100.00;101366.78;5006948;28;20034;-63
2023/03/21 07:33:06;;;;;;;2.88;1.90;;;;;;;9.39;100.00;101361.13;5006537;28;20036;-61
2023/03/21 07:35:32;;;;;;;2.75;1.85;;;;;;;9.43;100.00;101367.88;4992783;28;20053;-64
2023/03/21 07:37:57;;;;;;;2.75;1.75;;;;;;;9.43;100.00;101365.13;5007040;28;20034;-62
2023/03/21 07:40:23;;;;;;;1.98;1.70;;;;;;;9.44;100.00;101365.97;5007138;28;20124;-64
2023/03/21 07:42:49;;;;;;;1.77;1.55;;;;;;;9.44;100.00;101365.97;5006579;28;20060;-63
2023/03/21 07:45:19;;;;;;;2.38;1.85;;;;;;;9.43;100.00;101367.88;5005528;28;20061;-64
2023/03/21 07:47:45;;;;;;;2.95;1.80;;;;;;;9.43;100.00;101367.00;4995630;28;20038;-64
2023/03/21 07:50:10;;;;;;;3.25;1.73;;;;;;;9.43;100.00;101350.56;5005771;28;20030;-64
2023/03/21 07:52:35;;;;;;;2.03;1.55;;;;;;;9.44;100.00;101355.84;5005998;28;20038;-63
2023/03/21 07:55:01;;;;;;;2.63;1.83;;;;;;;9.46;100.00;101352.91;5007721;28;20113;-64
2023/03/21 07:57:26;;;;;;;2.38;1.80;;;;;;;9.47;100.00;101351.84;5005125;28;20060;-61
2023/03/21 07:59:51;;;;;;;2.58;1.70;;;;;;;9.50;100.00;101343.19;5007069;28;20068;-63
2023/03/21 08:02:17;;;;;;;1.80;1.50;;;;;;;9.51;100.00;101342.13;5003732;28;20030;-64
2023/03/21 08:04:42;;;;;;;2.70;1.75;;;;;;;9.47;100.00;101340.88;5005797;28;20041;-64
2023/03/21 08:07:08;;;;;;;3.13;2.05;;;;;;;9.45;100.00;101337.50;5004370;28;20034;-64
2023/03/21 08:09:34;;;;;;;2.58;1.90;;;;;;;9.44;100.00;101333.09;5010818;28;20091;-64
2023/03/21 08:11:59;;;;;;;2.85;2.00;;;;;;;9.43;100.00;101320.41;5010769;28;20392;-64
2023/03/21 08:14:24;;;;;;;2.85;1.80;;;;;;;9.44;100.00;101325.69;5010311;28;20076;-64
2023/03/21 08:16:50;;;;;;;3.00;1.77;;;;;;;9.45;100.00;101323.78;5009312;28;20092;-63
2023/03/21 08:19:17;;;;;;;2.65;1.85;;;;;;;9.48;100.00;101321.47;5009664;28;20108;-64
2023/03/21 08:21:42;;;;;;;2.63;2.10;;;;;;;9.52;100.00;101317.22;5010935;28;20049;-63
2023/03/21 08:24:08;;;;;;;2.63;2.05;;;;;;;9.57;100.00;101306.47;5010851;28;20065;-63
2023/03/21 08:26:33;;;;;;;2.65;1.75;;;;;;;9.61;100.00;101309.63;5010089;28;20037;-61
2023/03/21 08:28:59;;;;;;;3.28;1.83;;;;;;;9.63;100.00;101293.84;5010169;28;20081;-64
2023/03/21 08:31:24;;;;;;;2.88;2.08;;;;;;;9.69;100.00;101298.47;5011197;28;20033;-64
2023/03/21 08:33:53;;;;;;;3.15;1.95;;;;;;;9.72;100.00;101300.75;5009342;28;20030;-61
2023/03/21 08:36:19;;;;;;;3.10;2.15;;;;;;;9.73;100.00;101296.09;5002219;28;20029;-64
2023/03/21 08:38:47;;;;;;;3.30;1.92;;;;;;;9.77;100.00;101292.72;5004136;28;20049;-65
2023/03/21 08:41:12;;;;;;;2.78;2.13;;;;;;;9.75;100.00;101297.59;5008108;28;20037;-65
2023/03/21 08:43:37;;;;;;;2.40;2.10;;;;;;;9.74;100.00;101304.16;5006612;28;20046;-63
2023/03/21 08:46:03;;;;;;;2.60;1.95;;;;;;;9.73;100.00;101298.84;5004955;28;20038;-64
2023/03/21 08:48:28;;;;;;;2.83;2.00;;;;;;;9.73;100.00;101307.06;4986704;28;20018;-65
2023/03/21 08:50:54;;;;;;;3.55;2.00;;;;;;;9.73;100.00;101301.59;5002102;28;20041;-64
2023/03/21 08:53:19;;;;;;;2.97;2.15;;;;;;;9.75;100.00;101296.75;4993806;28;20026;-64
2023/03/21 08:55:44;;;;;;;2.40;1.88;;;;;;;9.77;100.00;101303.69;5003191;28;20033;-63
2023/03/21 08:58:10;;;;;;;2.72;1.80;;;;;;;9.79;100.00;101287.88;5002537;28;20033;-64
2023/03/21 09:00:35;;;;;;;3.45;2.00;;;;;;;9.82;100.00;101284.69;5003594;28;20026;-63
2023/03/21 09:03:03;;;;;;;2.72;1.80;;;;;;;9.87;100.00;101278.56;5007623;28;20022;-62
2023/03/21 09:05:29;;;;;;;2.15;1.40;;;;;;;9.90;100.00;101274.56;4998722;28;20030;-62
2023/03/21 09:07:54;;;;;;;1.92;1.70;;;;;;;9.88;100.00;101277.50;5001169;28;20041;-64
2023/03/21 09:10:21;;;;;;;2.45;1.63;;;;;;;9.93;100.00;101279.59;4999734;28;20042;-63
2023/03/21 09:12:48;;;;;;;2.80;1.85;;;;;;;9.96;100.00;101276.44;4996318;28;20018;-63
2023/03/21 09:15:14;;;;;;;2.40;1.60;;;;;;;10.04;100.00;101276.22;5008692;28;20084;-67
2023/03/21 09:17:42;;;;;;;2.22;1.42;;;;;;;10.02;100.00;101273.66;5006133;28;20420;-66
2023/03/21 09:20:17;;;;;;;2.13;1.60;;;;;;;10.05;100.00;101283.38;5005071;28;20029;-65
2023/03/21 09:22:46;;;;;;;1.77;1.50;;;;;;;10.10;100.00;101275.34;5007124;28;20026;-67
2023/03/21 09:25:12;;;;;;;2.15;1.60;;;;;;;10.19;100.00;101271.28;5004931;28;20036;-66
2023/03/21 09:27:37;;;;;;;2.35;1.50;;;;;;;10.26;100.00;101263.03;4997781;28;20025;-63
2023/03/21 09:30:04;;;;;;;2.42;1.50;;;;;;;10.32;100.00;101268.50;5005443;28;20080;-62
2023/03/21 09:32:30;;;;;;;2.47;1.58;;;;;;;10.33;100.00;101261.94;5003366;28;20123;-65
2023/03/21 09:34:56;;;;;;;1.70;1.58;;;;;;;10.37;100.00;101260.44;5005954;28;20117;-64
2023/03/21 09:37:21;;;;;;;2.33;1.70;;;;;;;10.41;100.00;101262.75;4986401;28;20042;-63
2023/03/21 09:39:49;;;;;;;3.15;1.65;;;;;;;10.48;100.00;101258.06;5005216;28;20056;-63
2023/03/21 09:42:52;;;;;;;1.80;1.35;;;;;;;10.55;100.00;101256.13;5005170;28;20452;-62
2023/03/21 09:45:32;;;;;;;2.58;1.60;;;;;;;10.50;100.00;101261.44;4997435;28;20858;-62
2023/03/21 09:47:58;;;;;;;1.50;1.30;;;;;;;10.53;100.00;101253.59;5005998;28;20391;-64
2023/03/21 09:50:36;;;;;;;1.83;1.50;;;;;;;10.58;100.00;101253.78;4997255;28;20033;-64
2023/03/21 09:53:10;;;;;;;2.25;1.60;;;;;;;10.53;100.00;101256.34;5005210;28;20408;-63
2023/03/21 09:55:37;;;;;;;2.08;1.55;;;;;;;10.54;100.00;101246.19;5007857;28;20122;-64
2023/03/21 09:58:19;;;;;;;2.05;1.50;;;;;;;10.59;100.00;101243.63;4993608;28;20046;-62
2023/03/21 10:00:48;;;;;;;1.90;1.52;;;;;;;10.66;100.00;101236.19;4992294;28;20061;-63
2023/03/21 10:03:23;;;;;;;1.90;1.58;;;;;;;10.67;100.00;101237.88;5003737;28;20046;-64
2023/03/21 10:05:51;;;;;;;1.40;1.30;;;;;;;10.73;100.00;101236.97;4995993;28;20092;-63
2023/03/21 10:08:26;;;;;;;2.33;1.30;;;;;;;10.76;100.00;101232.97;5001440;28;20039;-64
2023/03/21 10:11:00;;;;;;;1.98;1.30;;;;;;;10.86;100.00;101217.66;4998933;28;20140;-64
2023/03/21 10:13:28;;;;;;;2.08;1.50;;;;;;;10.89;100.00;101219.09;4997373;28;20096;-62
2023/03/21 10:16:21;;;;;;;1.90;1.30;;;;;;;10.93;100.00;101230.50;4998198;28;20037;-63
2023/03/21 10:18:47;;;;;;;2.22;1.30;;;;;;;10.95;100.00;101225.59;4993935;28;20038;-64
2023/03/21 10:21:21;;;;;;;2.13;1.40;;;;;;;11.03;100.00;101228.09;4998958;28;20026;-64
2023/03/21 10:23:48;;;;;;;1.55;1.30;;;;;;;11.08;100.00;101228.25;4999316;28;20025;-62
2023/03/21 10:26:13;;;;;;;1.58;1.38;;;;;;;11.08;100.00;101217.25;5007453;28;20056;-63
2023/03/21 10:28:40;;;;;;;1.30;1.20;;;;;;;11.15;100.00;101223.53;5022536;28;20468;-62
2023/03/21 10:31:08;;;;;;;1.42;1.23;;;;;;;11.28;100.00;101219.84;5010169;28;20034;-61
2023/03/21 10:33:41;;;;;;;1.48;1.10;;;;;;;11.39;100.00;101217.16;4995686;28;20054;-62
2023/03/21 10:36:11;;;;;;;2.33;1.58;;;;;;;11.52;100.00;101216.19;5001680;28;20393;-63
2023/03/21 10:38:42;;;;;;;2.10;1.35;;;;;;;11.84;100.00;101216.91;4995197;28;20022;-63
2023/03/21 10:41:09;;;;;;;1.80;1.17;;;;;;;12.03;99.89;101214.16;4993861;28;20040;-62
2023/03/21 10:43:37;;;;;;;1.98;1.20;;;;;;;12.09;98.67;101219.56;4991986;28;20041;-63
2023/03/21 10:46:10;;;;;;;2.00;1.30;;;;;;;12.15;98.37;101217.81;4996339;28;20068;-63
2023/03/21 10:48:38;;;;;;;1.25;1.00;;;;;;;12.08;97.55;101217.91;4998422;28;20029;-62
2023/03/21 10:51:07;;;;;;;1.48;1.10;;;;;;;12.17;97.64;101221.19;5003641;28;20034;-63
2023/03/21 10:53:37;;;;;;;2.53;1.33;;;;;;;12.15;96.91;101224.16;5000441;28;20026;-62
2023/03/21 10:56:08;;;;;;;2.25;1.23;;;;;;;12.10;96.66;101214.91;5004027;28;20026;-62
2023/03/21 10:58:38;;;;;;;1.98;1.20;;;;;;;12.17;96.28;101216.50;5006106;28;20388;-63
2023/03/21 11:01:06;;;;;;;1.70;1.30;;;;;;;12.21;93.40;101214.13;5016646;28;20052;-64
2023/03/21 11:03:42;;;;;;;2.10;1.27;;;;;;;12.20;92.53;101207.75;5027120;28;20037;-64
2023/03/21 11:06:11;;;;;;;1.77;1.27;;;;;;;12.29;94.51;101213.81;5028190;28;20028;-64
2023/03/21 11:08:50;;;;;;;1.77;1.17;;;;;;;12.49;92.76;101218.19;5010413;28;20112;-63
2023/03/21 11:11:24;;;;;;;1.33;1.10;;;;;;;12.67;91.14;101202.44;5024106;28;20037;-63
2023/03/21 11:13:56;;;;;;;2.50;1.33;;;;;;;12.76;89.91;101211.19;5024438;28;20026;-62
2023/03/21 11:16:26;;;;;;;1.50;1.00;;;;;;;12.78;90.03;101209.06;5019549;28;20109;-64
2023/03/21 11:18:58;;;;;;;1.60;1.15;;;;;;;12.76;88.52;101197.41;5006373;28;20084;-63
2023/03/21 11:21:26;;;;;;;1.65;1.23;;;;;;;12.68;89.02;101211.53;5007953;28;20113;-63
2023/03/21 11:23:54;;;;;;;1.67;1.33;;;;;;;12.64;90.36;101199.31;5007608;28;20073;-62
2023/03/21 11:26:26;;;;;;;1.95;1.20;;;;;;;12.70;90.56;101209.38;4990351;28;20028;-63
2023/03/21 11:28:52;;;;;;;1.98;1.23;;;;;;;12.78;88.46;101192.50;5027024;28;20041;-63
2023/03/21 11:31:18;;;;;;;3.03;1.25;;;;;;;12.84;87.05;101204.50;5011777;28;20054;-63